sensor_id;sensor_type;location;lat;lon;timestamp;noise_LAeq;noise_LA_min;noise_LA_max;noise_LA01;noise_LA95
64079;Laerm;51042;49.696;10.808;2023-04-01T00:00:08;60.34;42.52;81.21;;
64079;Laerm;51042;49.696;10.808;2023-04-01T00:02:35;54.11;41.62;77.26;;
64079;Laerm;51042;49.696;10.808;2023-04-01T00:05:00;52.18;41.92;73.96;;
64079;Laerm;51042;49.696;10.808;2023-04-01T00:07:26;56.73;42.04;78.19;;
64079;Laerm;51042;49.696;10.808;2023-04-01T00:09:52;52.03;41.96;72.87;;
64079;Laerm;51042;49.696;10.808;2023-04-01T00:12:17;53.88;42.01;75.22;;
64079;Laerm;51042;49.696;10.808;2023-04-01T00:14:42;53.39;41.90;72.40;;
64079;Laerm;51042;49.696;10.808;2023-04-01T00:17:08;45.63;41.64;64.65;;
64079;Laerm;51042;49.696;10.808;2023-04-01T00:19:33;54.37;42.30;76.60;;
64079;Laerm;51042;49.696;10.808;2023-04-01T00:21:58;60.10;42.07;78.94;;
64079;Laerm;51042;49.696;10.808;2023-04-01T00:24:24;56.31;41.60;77.60;;
64079;Laerm;51042;49.696;10.808;2023-04-01T00:26:49;50.20;41.36;74.90;;
64079;Laerm;51042;49.696;10.808;2023-04-01T00:29:14;64.27;41.86;86.98;;
64079;Laerm;51042;49.696;10.808;2023-04-01T00:31:40;53.10;41.84;78.47;;
64079;Laerm;51042;49.696;10.808;2023-04-01T00:34:05;46.88;40.98;65.19;;
64079;Laerm;51042;49.696;10.808;2023-04-01T00:36:30;50.02;41.44;72.62;;
64079;Laerm;51042;49.696;10.808;2023-04-01T00:38:57;60.33;41.72;83.25;;
64079;Laerm;51042;49.696;10.808;2023-04-01T00:41:23;48.80;41.78;68.86;;
64079;Laerm;51042;49.696;10.808;2023-04-01T00:43:51;56.18;42.36;69.65;;
64079;Laerm;51042;49.696;10.808;2023-04-01T00:46:17;57.12;41.83;78.55;;
64079;Laerm;51042;49.696;10.808;2023-04-01T00:48:51;52.07;41.30;72.64;;
64079;Laerm;51042;49.696;10.808;2023-04-01T00:51:24;51.72;41.24;67.91;;
64079;Laerm;51042;49.696;10.808;2023-04-01T00:53:53;45.33;40.89;61.14;;
64079;Laerm;51042;49.696;10.808;2023-04-01T00:56:44;48.34;41.64;67.49;;
64079;Laerm;51042;49.696;10.808;2023-04-01T00:59:14;47.85;41.57;71.01;;
64079;Laerm;51042;49.696;10.808;2023-04-01T01:01:41;47.81;41.79;68.51;;
64079;Laerm;51042;49.696;10.808;2023-04-01T01:04:06;46.25;41.77;66.33;;
64079;Laerm;51042;49.696;10.808;2023-04-01T01:10:24;54.15;41.63;74.82;;
64079;Laerm;51042;49.696;10.808;2023-04-01T01:13:17;45.90;41.35;63.00;;
64079;Laerm;51042;49.696;10.808;2023-04-01T01:15:58;56.15;41.14;75.47;;
64079;Laerm;51042;49.696;10.808;2023-04-01T01:26:57;50.41;42.00;68.89;;
64079;Laerm;51042;49.696;10.808;2023-04-01T01:37:23;58.80;42.27;78.73;;
64079;Laerm;51042;49.696;10.808;2023-04-01T01:39:56;55.76;41.59;81.53;;
64079;Laerm;51042;49.696;10.808;2023-04-01T01:42:26;48.90;41.65;70.30;;
64079;Laerm;51042;49.696;10.808;2023-04-01T01:44:53;47.42;41.60;72.26;;
64079;Laerm;51042;49.696;10.808;2023-04-01T01:47:22;55.89;41.99;76.34;;
64079;Laerm;51042;49.696;10.808;2023-04-01T01:49:48;61.58;41.72;79.38;;
64079;Laerm;51042;49.696;10.808;2023-04-01T01:52:16;47.11;41.75;67.47;;
64079;Laerm;51042;49.696;10.808;2023-04-01T01:54:53;57.97;41.41;78.16;;
64079;Laerm;51042;49.696;10.808;2023-04-01T01:57:26;54.33;41.75;76.54;;
64079;Laerm;51042;49.696;10.808;2023-04-01T01:59:58;52.00;42.22;76.46;;
64079;Laerm;51042;49.696;10.808;2023-04-01T02:02:26;55.67;41.94;75.15;;
64079;Laerm;51042;49.696;10.808;2023-04-01T02:04:52;49.89;41.66;70.54;;
64079;Laerm;51042;49.696;10.808;2023-04-01T02:07:28;48.16;41.51;68.81;;
64079;Laerm;51042;49.696;10.808;2023-04-01T02:09:56;55.44;41.89;77.60;;
64079;Laerm;51042;49.696;10.808;2023-04-01T02:12:22;65.43;42.91;87.15;;
64079;Laerm;51042;49.696;10.808;2023-04-01T02:17:19;53.10;41.71;72.12;;
64079;Laerm;51042;49.696;10.808;2023-04-01T02:19:56;58.23;42.37;79.82;;
64079;Laerm;51042;49.696;10.808;2023-04-01T02:22:26;51.99;41.96;72.48;;
64079;Laerm;51042;49.696;10.808;2023-04-01T02:24:57;59.96;42.66;81.65;;
64079;Laerm;51042;49.696;10.808;2023-04-01T02:27:23;57.01;42.72;76.94;;
64079;Laerm;51042;49.696;10.808;2023-04-01T02:29:50;55.35;42.72;76.36;;
64079;Laerm;51042;49.696;10.808;2023-04-01T02:32:16;66.02;42.71;86.46;;
64079;Laerm;51042;49.696;10.808;2023-04-01T02:34:44;62.63;42.56;87.14;;
64079;Laerm;51042;49.696;10.808;2023-04-01T02:37:11;55.20;42.48;73.96;;
64079;Laerm;51042;49.696;10.808;2023-04-01T02:39:37;61.01;42.09;81.20;;
64079;Laerm;51042;49.696;10.808;2023-04-01T02:42:03;61.78;42.77;79.25;;
64079;Laerm;51042;49.696;10.808;2023-04-01T02:44:28;65.41;42.56;84.80;;
64079;Laerm;51042;49.696;10.808;2023-04-01T02:46:53;64.05;42.06;86.15;;
64079;Laerm;51042;49.696;10.808;2023-04-01T02:49:19;49.53;42.15;72.26;;
64079;Laerm;51042;49.696;10.808;2023-04-01T02:51:44;54.56;42.60;76.36;;
64079;Laerm;51042;49.696;10.808;2023-04-01T02:54:09;53.81;43.02;78.50;;
64079;Laerm;51042;49.696;10.808;2023-04-01T02:56:35;59.88;42.94;77.91;;
64079;Laerm;51042;49.696;10.808;2023-04-01T02:59:00;64.96;43.02;85.53;;
64079;Laerm;51042;49.696;10.808;2023-04-01T03:01:25;53.91;42.23;76.18;;
64079;Laerm;51042;49.696;10.808;2023-04-01T03:03:51;57.20;42.56;78.28;;
64079;Laerm;51042;49.696;10.808;2023-04-01T03:06:17;63.73;42.33;86.40;;
64079;Laerm;51042;49.696;10.808;2023-04-01T03:08:43;57.85;42.71;77.39;;
64079;Laerm;51042;49.696;10.808;2023-04-01T03:11:09;54.29;42.43;71.26;;
64079;Laerm;51042;49.696;10.808;2023-04-01T03:13:35;61.46;42.77;83.85;;
64079;Laerm;51042;49.696;10.808;2023-04-01T03:16:00;57.32;42.55;77.41;;
64079;Laerm;51042;49.696;10.808;2023-04-01T03:18:26;49.58;42.05;71.87;;
64079;Laerm;51042;49.696;10.808;2023-04-01T03:20:51;55.19;42.23;77.27;;
64079;Laerm;51042;49.696;10.808;2023-04-01T03:23:17;59.95;42.89;81.07;;
64079;Laerm;51042;49.696;10.808;2023-04-01T03:25:44;60.44;42.51;84.51;;
64079;Laerm;51042;49.696;10.808;2023-04-01T03:28:10;58.38;42.23;76.58;;
64079;Laerm;51042;49.696;10.808;2023-04-01T03:30:35;59.64;42.68;81.11;;
64079;Laerm;51042;49.696;10.808;2023-04-01T03:33:01;55.03;42.12;70.26;;
64079;Laerm;51042;49.696;10.808;2023-04-01T03:35:27;65.81;42.98;83.94;;
64079;Laerm;51042;49.696;10.808;2023-04-01T03:37:53;63.06;43.00;81.49;;
64079;Laerm;51042;49.696;10.808;2023-04-01T03:40:19;53.69;41.98;69.04;;
64079;Laerm;51042;49.696;10.808;2023-04-01T03:42:45;54.87;42.23;78.18;;
64079;Laerm;51042;49.696;10.808;2023-04-01T03:45:10;59.96;41.77;78.47;;
64079;Laerm;51042;49.696;10.808;2023-04-01T03:47:37;62.18;41.66;83.47;;
64079;Laerm;51042;49.696;10.808;2023-04-01T03:50:05;61.06;41.95;85.22;;
64079;Laerm;51042;49.696;10.808;2023-04-01T03:52:31;56.09;40.86;79.47;;
64079;Laerm;51042;49.696;10.808;2023-04-01T03:54:56;60.59;41.61;82.81;;
64079;Laerm;51042;49.696;10.808;2023-04-01T03:57:22;60.24;41.12;80.20;;
64079;Laerm;51042;49.696;10.808;2023-04-01T03:59:47;59.47;40.37;82.46;;
64079;Laerm;51042;49.696;10.808;2023-04-01T04:02:12;60.82;42.46;74.71;;
64079;Laerm;51042;49.696;10.808;2023-04-01T04:04:38;66.31;50.00;77.87;;
64079;Laerm;51042;49.696;10.808;2023-04-01T04:07:03;67.54;46.75;87.53;;
64079;Laerm;51042;49.696;10.808;2023-04-01T04:09:30;62.70;41.69;78.97;;
64079;Laerm;51042;49.696;10.808;2023-04-01T04:11:55;60.50;41.50;73.13;;
64079;Laerm;51042;49.696;10.808;2023-04-01T04:14:22;55.15;40.86;73.00;;
64079;Laerm;51042;49.696;10.808;2023-04-01T04:16:47;57.09;40.78;72.28;;
64079;Laerm;51042;49.696;10.808;2023-04-01T04:19:13;48.63;41.28;64.40;;
64079;Laerm;51042;49.696;10.808;2023-04-01T04:21:39;56.96;42.06;72.66;;
64079;Laerm;51042;49.696;10.808;2023-04-01T04:24:05;59.08;43.25;71.34;;
64079;Laerm;51042;49.696;10.808;2023-04-01T04:26:30;61.43;43.45;78.27;;
64079;Laerm;51042;49.696;10.808;2023-04-01T04:28:56;56.42;41.46;67.37;;
64079;Laerm;51042;49.696;10.808;2023-04-01T04:31:22;55.37;41.59;77.76;;
64079;Laerm;51042;49.696;10.808;2023-04-01T04:33:49;58.34;41.17;73.65;;
64079;Laerm;51042;49.696;10.808;2023-04-01T04:36:14;52.86;40.51;70.46;;
64079;Laerm;51042;49.696;10.808;2023-04-01T04:38:40;54.11;40.72;72.01;;
64079;Laerm;51042;49.696;10.808;2023-04-01T04:41:10;61.44;42.03;80.20;;
64079;Laerm;51042;49.696;10.808;2023-04-01T04:43:36;50.41;41.67;67.75;;
64079;Laerm;51042;49.696;10.808;2023-04-01T04:46:09;54.93;41.29;71.64;;
64079;Laerm;51042;49.696;10.808;2023-04-01T04:48:35;58.83;41.12;74.39;;
64079;Laerm;51042;49.696;10.808;2023-04-01T04:51:01;57.97;41.47;73.69;;
64079;Laerm;51042;49.696;10.808;2023-04-01T04:53:26;59.18;40.99;78.29;;
64079;Laerm;51042;49.696;10.808;2023-04-01T04:55:52;57.99;41.45;74.29;;
64079;Laerm;51042;49.696;10.808;2023-04-01T04:58:18;57.87;41.46;75.71;;
64079;Laerm;51042;49.696;10.808;2023-04-01T05:00:43;56.83;41.04;71.53;;
64079;Laerm;51042;49.696;10.808;2023-04-01T05:03:09;54.63;40.96;72.46;;
64079;Laerm;51042;49.696;10.808;2023-04-01T05:05:35;58.27;40.49;79.55;;
64079;Laerm;51042;49.696;10.808;2023-04-01T05:08:00;54.71;40.69;69.64;;
64079;Laerm;51042;49.696;10.808;2023-04-01T05:10:26;55.12;40.19;74.67;;
64079;Laerm;51042;49.696;10.808;2023-04-01T05:12:51;54.30;40.40;71.49;;
64079;Laerm;51042;49.696;10.808;2023-04-01T05:15:16;57.93;40.10;73.77;;
64079;Laerm;51042;49.696;10.808;2023-04-01T05:17:42;48.05;41.03;64.30;;
64079;Laerm;51042;49.696;10.808;2023-04-01T05:20:07;55.59;40.72;68.61;;
64079;Laerm;51042;49.696;10.808;2023-04-01T05:22:33;55.05;40.56;76.21;;
64079;Laerm;51042;49.696;10.808;2023-04-01T05:24:58;59.70;41.83;78.18;;
64079;Laerm;51042;49.696;10.808;2023-04-01T05:27:24;57.90;41.50;75.64;;
64079;Laerm;51042;49.696;10.808;2023-04-01T05:29:49;59.09;42.15;77.52;;
64079;Laerm;51042;49.696;10.808;2023-04-01T05:32:15;61.17;41.67;75.02;;
64079;Laerm;51042;49.696;10.808;2023-04-01T05:34:40;60.44;41.19;72.85;;
64079;Laerm;51042;49.696;10.808;2023-04-01T05:37:06;59.35;40.93;78.99;;
64079;Laerm;51042;49.696;10.808;2023-04-01T05:39:36;58.41;41.12;73.65;;
64079;Laerm;51042;49.696;10.808;2023-04-01T05:42:02;59.09;41.32;76.28;;
64079;Laerm;51042;49.696;10.808;2023-04-01T05:44:27;60.03;41.32;76.83;;
64079;Laerm;51042;49.696;10.808;2023-04-01T05:46:52;61.94;41.35;81.64;;
64079;Laerm;51042;49.696;10.808;2023-04-01T05:49:18;62.76;41.45;78.76;;
64079;Laerm;51042;49.696;10.808;2023-04-01T05:51:43;59.35;41.56;74.28;;
64079;Laerm;51042;49.696;10.808;2023-04-01T05:54:08;53.62;40.99;72.69;;
64079;Laerm;51042;49.696;10.808;2023-04-01T05:56:34;58.48;41.23;74.74;;
64079;Laerm;51042;49.696;10.808;2023-04-01T05:58:59;58.54;40.71;75.83;;
64079;Laerm;51042;49.696;10.808;2023-04-01T06:01:25;54.44;40.85;71.61;;
64079;Laerm;51042;49.696;10.808;2023-04-01T06:03:50;59.39;40.82;72.11;;
64079;Laerm;51042;49.696;10.808;2023-04-01T06:06:23;59.30;41.00;78.98;;
64079;Laerm;51042;49.696;10.808;2023-04-01T06:08:49;60.63;41.41;77.34;;
64079;Laerm;51042;49.696;10.808;2023-04-01T06:17:00;59.44;40.82;72.13;;
64079;Laerm;51042;49.696;10.808;2023-04-01T06:19:45;54.43;40.68;68.15;;
64079;Laerm;51042;49.696;10.808;2023-04-01T06:22:16;55.83;40.09;69.52;;
64079;Laerm;51042;49.696;10.808;2023-04-01T06:35:38;60.21;40.83;79.68;;
64079;Laerm;51042;49.696;10.808;2023-04-01T06:48:57;64.11;48.39;82.05;;
64079;Laerm;51042;49.696;10.808;2023-04-01T06:51:47;61.01;41.67;73.82;;
64079;Laerm;51042;49.696;10.808;2023-04-01T06:54:20;59.74;42.27;77.67;;
64079;Laerm;51042;49.696;10.808;2023-04-01T06:56:49;64.69;42.18;85.08;;
64079;Laerm;51042;49.696;10.808;2023-04-01T06:59:21;62.23;44.41;74.55;;
64079;Laerm;51042;49.696;10.808;2023-04-01T07:01:54;62.95;42.63;77.06;;
64079;Laerm;51042;49.696;10.808;2023-04-01T07:04:27;61.27;40.55;75.98;;
64079;Laerm;51042;49.696;10.808;2023-04-01T07:06:58;66.97;41.66;83.88;;
64079;Laerm;51042;49.696;10.808;2023-04-01T07:09:30;63.02;41.76;78.01;;
64079;Laerm;51042;49.696;10.808;2023-04-01T07:12:01;62.10;44.70;76.57;;
64079;Laerm;51042;49.696;10.808;2023-04-01T07:17:03;61.41;44.44;78.49;;
64079;Laerm;51042;49.696;10.808;2023-04-01T07:22:16;62.14;49.74;72.93;;
64079;Laerm;51042;49.696;10.808;2023-04-01T07:24:45;63.40;46.37;78.67;;
64079;Laerm;51042;49.696;10.808;2023-04-01T07:27:13;61.71;44.11;76.60;;
64079;Laerm;51042;49.696;10.808;2023-04-01T07:29:38;61.43;41.92;74.51;;
64079;Laerm;51042;49.696;10.808;2023-04-01T07:39:57;64.95;44.41;82.17;;
64079;Laerm;51042;49.696;10.808;2023-04-01T07:48:09;65.26;42.42;85.62;;
64079;Laerm;51042;49.696;10.808;2023-04-01T07:54:32;66.54;42.96;87.55;;
64079;Laerm;51042;49.696;10.808;2023-04-01T07:59:21;63.53;45.11;81.28;;
64079;Laerm;51042;49.696;10.808;2023-04-01T08:02:08;65.49;41.76;85.80;;
64079;Laerm;51042;49.696;10.808;2023-04-01T08:10:55;68.12;44.97;91.10;;
64079;Laerm;51042;49.696;10.808;2023-04-01T08:13:35;65.08;45.58;84.96;;
64079;Laerm;51042;49.696;10.808;2023-04-01T08:16:14;63.78;43.01;82.90;;
64079;Laerm;51042;49.696;10.808;2023-04-01T08:21:24;71.76;47.03;94.75;;
64079;Laerm;51042;49.696;10.808;2023-04-01T08:23:57;65.65;44.21;88.88;;
64079;Laerm;51042;49.696;10.808;2023-04-01T08:26:26;62.37;43.87;82.02;;
64079;Laerm;51042;49.696;10.808;2023-04-01T08:29:10;62.11;46.60;71.35;;
64079;Laerm;51042;49.696;10.808;2023-04-01T08:31:45;64.43;43.14;86.96;;
64079;Laerm;51042;49.696;10.808;2023-04-01T08:34:28;63.95;45.74;81.67;;
64079;Laerm;51042;49.696;10.808;2023-04-01T08:37:02;66.55;46.85;89.63;;
64079;Laerm;51042;49.696;10.808;2023-04-01T08:39:44;63.60;44.58;86.45;;
64079;Laerm;51042;49.696;10.808;2023-04-01T08:47:46;64.48;47.55;81.45;;
64079;Laerm;51042;49.696;10.808;2023-04-01T08:53:35;65.82;50.22;89.87;;
64079;Laerm;51042;49.696;10.808;2023-04-01T09:04:41;65.46;47.22;77.16;;
64079;Laerm;51042;49.696;10.808;2023-04-01T09:07:33;64.45;45.16;83.09;;
64079;Laerm;51042;49.696;10.808;2023-04-01T09:10:28;64.80;46.30;75.80;;
64079;Laerm;51042;49.696;10.808;2023-04-01T09:13:08;66.42;47.80;83.85;;
64079;Laerm;51042;49.696;10.808;2023-04-01T09:18:46;64.68;45.28;86.83;;
64079;Laerm;51042;49.696;10.808;2023-04-01T09:21:33;65.67;45.09;79.82;;
64079;Laerm;51042;49.696;10.808;2023-04-01T09:38:38;65.55;49.50;75.25;;
64079;Laerm;51042;49.696;10.808;2023-04-01T09:44:01;66.92;55.47;80.62;;
64079;Laerm;51042;49.696;10.808;2023-04-01T09:49:36;69.21;44.64;85.94;;
64079;Laerm;51042;49.696;10.808;2023-04-01T09:52:18;66.38;46.68;80.17;;
64079;Laerm;51042;49.696;10.808;2023-04-01T10:14:46;69.29;50.58;87.00;;
64079;Laerm;51042;49.696;10.808;2023-04-01T10:17:51;66.59;48.80;80.61;;
64079;Laerm;51042;49.696;10.808;2023-04-01T10:23:38;68.21;48.66;83.43;;
64079;Laerm;51042;49.696;10.808;2023-04-01T10:26:32;66.26;49.44;84.02;;
64079;Laerm;51042;49.696;10.808;2023-04-01T10:29:06;71.28;47.79;89.93;;
64079;Laerm;51042;49.696;10.808;2023-04-01T10:32:05;65.37;46.80;74.18;;
64079;Laerm;51042;49.696;10.808;2023-04-01T10:54:29;66.58;45.64;76.90;;
64079;Laerm;51042;49.696;10.808;2023-04-01T10:57:27;66.96;49.88;77.85;;
64079;Laerm;51042;49.696;10.808;2023-04-01T11:23:22;65.34;47.65;74.53;;
64079;Laerm;51042;49.696;10.808;2023-04-01T11:44:29;64.35;47.80;77.18;;
64079;Laerm;51042;49.696;10.808;2023-04-01T11:47:24;67.18;49.07;79.83;;
64079;Laerm;51042;49.696;10.808;2023-04-01T11:50:29;65.66;48.62;80.29;;
64079;Laerm;51042;49.696;10.808;2023-04-01T11:53:13;64.51;45.56;81.07;;
64079;Laerm;51042;49.696;10.808;2023-04-01T11:58:40;63.60;45.28;73.12;;
64079;Laerm;51042;49.696;10.808;2023-04-01T12:06:51;68.35;49.98;90.55;;
64079;Laerm;51042;49.696;10.808;2023-04-01T12:09:33;67.37;52.22;79.29;;
64079;Laerm;51042;49.696;10.808;2023-04-01T12:12:13;65.25;43.71;77.93;;
64079;Laerm;51042;49.696;10.808;2023-04-01T12:15:23;65.78;43.65;81.10;;
64079;Laerm;51042;49.696;10.808;2023-04-01T12:18:08;65.34;44.28;78.53;;
64079;Laerm;51042;49.696;10.808;2023-04-01T12:26:01;63.93;44.91;79.76;;
64079;Laerm;51042;49.696;10.808;2023-04-01T12:28:54;63.54;43.87;76.63;;
64079;Laerm;51042;49.696;10.808;2023-04-01T12:39:46;68.07;45.33;88.50;;
64079;Laerm;51042;49.696;10.808;2023-04-01T12:45:27;64.63;45.69;75.74;;
64079;Laerm;51042;49.696;10.808;2023-04-01T12:53:41;65.00;46.26;79.97;;
64079;Laerm;51042;49.696;10.808;2023-04-01T12:56:53;65.55;44.24;81.76;;
64079;Laerm;51042;49.696;10.808;2023-04-01T13:07:23;66.81;53.53;76.14;;
64079;Laerm;51042;49.696;10.808;2023-04-01T13:10:03;63.78;45.37;73.21;;
64079;Laerm;51042;49.696;10.808;2023-04-01T13:18:03;65.26;49.32;82.05;;
64079;Laerm;51042;49.696;10.808;2023-04-01T13:20:43;65.89;46.94;81.62;;
64079;Laerm;51042;49.696;10.808;2023-04-01T13:26:09;63.95;45.10;77.15;;
64079;Laerm;51042;49.696;10.808;2023-04-01T13:28:53;66.22;50.14;90.19;;
64079;Laerm;51042;49.696;10.808;2023-04-01T13:32:32;65.15;45.63;85.29;;
64079;Laerm;51042;49.696;10.808;2023-04-01T13:34:47;67.19;45.08;86.09;;
64079;Laerm;51042;49.696;10.808;2023-04-01T13:42:33;65.20;49.59;75.14;;
64079;Laerm;51042;49.696;10.808;2023-04-01T13:45:14;63.69;44.84;73.20;;
64079;Laerm;51042;49.696;10.808;2023-04-01T13:47:47;63.37;43.78;73.89;;
64079;Laerm;51042;49.696;10.808;2023-04-01T13:58:45;64.33;43.93;82.70;;
64079;Laerm;51042;49.696;10.808;2023-04-01T14:07:35;65.03;47.04;87.24;;
64079;Laerm;51042;49.696;10.808;2023-04-01T14:10:40;65.79;47.43;79.41;;
64079;Laerm;51042;49.696;10.808;2023-04-01T14:13:30;63.38;45.37;81.98;;
64079;Laerm;51042;49.696;10.808;2023-04-01T14:21:32;64.02;45.06;76.45;;
64079;Laerm;51042;49.696;10.808;2023-04-01T14:26:50;65.52;45.84;75.38;;
64079;Laerm;51042;49.696;10.808;2023-04-01T14:40:26;64.21;49.04;75.05;;
64079;Laerm;51042;49.696;10.808;2023-04-01T14:48:38;65.96;48.05;76.15;;
64079;Laerm;51042;49.696;10.808;2023-04-01T14:54:02;65.14;47.42;78.74;;
64079;Laerm;51042;49.696;10.808;2023-04-01T14:57:14;66.32;46.04;74.95;;
64079;Laerm;51042;49.696;10.808;2023-04-01T14:59:46;65.58;47.81;75.65;;
64079;Laerm;51042;49.696;10.808;2023-04-01T15:10:48;65.08;45.07;73.91;;
64079;Laerm;51042;49.696;10.808;2023-04-01T15:19:42;64.50;43.97;75.39;;
64079;Laerm;51042;49.696;10.808;2023-04-01T15:25:01;62.91;43.24;76.53;;
64079;Laerm;51042;49.696;10.808;2023-04-01T15:28:01;64.68;43.83;76.41;;
64079;Laerm;51042;49.696;10.808;2023-04-01T15:30:56;64.21;43.59;79.77;;
64079;Laerm;51042;49.696;10.808;2023-04-01T15:33:26;65.35;42.91;76.05;;
64079;Laerm;51042;49.696;10.808;2023-04-01T15:38:44;63.14;43.40;81.58;;
64079;Laerm;51042;49.696;10.808;2023-04-01T15:41:22;64.44;43.58;74.06;;
64079;Laerm;51042;49.696;10.808;2023-04-01T15:43:50;65.06;45.10;76.49;;
64079;Laerm;51042;49.696;10.808;2023-04-01T15:46:44;63.64;46.00;76.58;;
64079;Laerm;51042;49.696;10.808;2023-04-01T15:49:46;63.70;46.54;80.72;;
64079;Laerm;51042;49.696;10.808;2023-04-01T16:01:18;64.15;44.71;77.50;;
64079;Laerm;51042;49.696;10.808;2023-04-01T16:03:59;64.07;48.74;74.64;;
64079;Laerm;51042;49.696;10.808;2023-04-01T16:22:20;61.94;43.69;72.48;;
64079;Laerm;51042;49.696;10.808;2023-04-01T16:32:54;64.88;44.96;77.80;;
64079;Laerm;51042;49.696;10.808;2023-04-01T16:35:43;61.63;42.89;77.03;;
64079;Laerm;51042;49.696;10.808;2023-04-01T16:41:25;64.71;44.24;85.77;;
64079;Laerm;51042;49.696;10.808;2023-04-01T16:43:57;67.34;46.06;86.32;;
64079;Laerm;51042;49.696;10.808;2023-04-01T16:59:37;63.03;42.97;73.65;;
64079;Laerm;51042;49.696;10.808;2023-04-01T17:05:05;65.07;43.55;84.34;;
64079;Laerm;51042;49.696;10.808;2023-04-01T17:08:08;62.35;42.38;80.90;;
64079;Laerm;51042;49.696;10.808;2023-04-01T17:11:02;61.97;42.66;73.84;;
64079;Laerm;51042;49.696;10.808;2023-04-01T17:14:25;58.69;41.34;73.26;;
64079;Laerm;51042;49.696;10.808;2023-04-01T17:17:15;58.89;42.26;69.41;;
64079;Laerm;51042;49.696;10.808;2023-04-01T17:22:52;58.19;41.23;76.36;;
64079;Laerm;51042;49.696;10.808;2023-04-01T17:28:05;59.41;42.58;70.89;;
64079;Laerm;51042;49.696;10.808;2023-04-01T17:30:39;62.24;41.32;75.73;;
64079;Laerm;51042;49.696;10.808;2023-04-01T17:35:51;59.88;42.76;72.77;;
64079;Laerm;51042;49.696;10.808;2023-04-01T17:38:40;61.91;41.21;74.60;;
64079;Laerm;51042;49.696;10.808;2023-04-01T17:44:26;61.53;41.77;73.88;;
64079;Laerm;51042;49.696;10.808;2023-04-01T17:47:13;60.84;42.09;76.36;;
64079;Laerm;51042;49.696;10.808;2023-04-01T17:49:59;55.04;41.38;73.04;;
64079;Laerm;51042;49.696;10.808;2023-04-01T17:52:34;58.21;41.68;72.91;;
64079;Laerm;51042;49.696;10.808;2023-04-01T17:55:26;59.67;41.15;77.21;;
64079;Laerm;51042;49.696;10.808;2023-04-01T17:57:58;67.31;43.43;85.67;;
64079;Laerm;51042;49.696;10.808;2023-04-01T18:00:38;59.40;41.78;76.94;;
64079;Laerm;51042;49.696;10.808;2023-04-01T18:03:44;60.26;42.76;73.56;;
64079;Laerm;51042;49.696;10.808;2023-04-01T18:09:25;55.17;41.37;73.00;;
64079;Laerm;51042;49.696;10.808;2023-04-01T18:12:12;58.82;41.18;72.87;;
64079;Laerm;51042;49.696;10.808;2023-04-01T18:20:20;63.81;40.22;82.50;;
64079;Laerm;51042;49.696;10.808;2023-04-01T18:25:48;60.26;40.87;75.51;;
64079;Laerm;51042;49.696;10.808;2023-04-01T18:31:07;57.59;40.39;71.54;;
64079;Laerm;51042;49.696;10.808;2023-04-01T18:38:55;55.56;39.51;70.00;;
64079;Laerm;51042;49.696;10.808;2023-04-01T18:41:39;58.50;40.66;73.19;;
64079;Laerm;51042;49.696;10.808;2023-04-01T18:49:46;57.37;40.07;70.41;;
64079;Laerm;51042;49.696;10.808;2023-04-01T18:57:50;61.30;40.02;75.60;;
64079;Laerm;51042;49.696;10.808;2023-04-01T19:02:51;58.04;39.49;70.42;;
64079;Laerm;51042;49.696;10.808;2023-04-01T19:05:30;59.29;39.57;75.02;;
64079;Laerm;51042;49.696;10.808;2023-04-01T19:08:14;52.64;39.49;69.67;;
64079;Laerm;51042;49.696;10.808;2023-04-01T19:16:09;56.11;39.73;71.31;;
64079;Laerm;51042;49.696;10.808;2023-04-01T19:29:20;63.05;42.35;74.86;;
64079;Laerm;51042;49.696;10.808;2023-04-01T19:31:58;61.23;40.39;73.68;;
64079;Laerm;51042;49.696;10.808;2023-04-01T19:39:48;58.41;39.97;74.87;;
64079;Laerm;51042;49.696;10.808;2023-04-01T19:42:39;52.29;39.82;70.62;;
64079;Laerm;51042;49.696;10.808;2023-04-01T19:45:29;53.46;40.11;67.24;;
64079;Laerm;51042;49.696;10.808;2023-04-01T19:50:47;43.27;39.94;57.56;;
64079;Laerm;51042;49.696;10.808;2023-04-01T19:53:23;54.33;39.77;71.06;;
64079;Laerm;51042;49.696;10.808;2023-04-01T19:56:18;55.81;39.78;73.33;;
64079;Laerm;51042;49.696;10.808;2023-04-01T20:04:34;55.38;39.92;75.09;;
64079;Laerm;51042;49.696;10.808;2023-04-01T20:07:20;59.54;39.69;71.35;;
64079;Laerm;51042;49.696;10.808;2023-04-01T20:16:21;57.68;40.19;71.07;;
64079;Laerm;51042;49.696;10.808;2023-04-01T20:18:54;56.39;39.16;72.50;;
64079;Laerm;51042;49.696;10.808;2023-04-01T20:24:23;50.99;39.49;65.63;;
64079;Laerm;51042;49.696;10.808;2023-04-01T20:27:08;56.36;40.11;71.55;;
64079;Laerm;51042;49.696;10.808;2023-04-01T20:29:40;49.74;39.61;65.90;;
64079;Laerm;51042;49.696;10.808;2023-04-01T20:37:40;50.68;39.64;66.96;;
64079;Laerm;51042;49.696;10.808;2023-04-01T20:40:32;50.79;39.96;68.17;;
64079;Laerm;51042;49.696;10.808;2023-04-01T20:43:22;51.37;40.11;71.62;;
64079;Laerm;51042;49.696;10.808;2023-04-01T20:46:14;58.18;39.45;74.05;;
64079;Laerm;51042;49.696;10.808;2023-04-01T20:51:54;48.51;39.80;70.49;;
64079;Laerm;51042;49.696;10.808;2023-04-01T20:57:12;54.03;39.40;74.71;;
64079;Laerm;51042;49.696;10.808;2023-04-01T20:59:42;56.44;39.65;71.20;;
64079;Laerm;51042;49.696;10.808;2023-04-01T21:13:10;57.39;38.89;72.25;;
64079;Laerm;51042;49.696;10.808;2023-04-01T21:34:55;44.97;39.93;64.77;;
64079;Laerm;51042;49.696;10.808;2023-04-01T21:46:26;52.14;38.87;71.07;;
64079;Laerm;51042;49.696;10.808;2023-04-01T21:58:39;50.14;39.11;68.50;;
64079;Laerm;51042;49.696;10.808;2023-04-01T22:10:03;51.02;39.26;68.97;;
64079;Laerm;51042;49.696;10.808;2023-04-01T22:20:40;51.24;38.83;69.67;;
64079;Laerm;51042;49.696;10.808;2023-04-01T22:23:31;41.18;38.80;50.35;;
64079;Laerm;51042;49.696;10.808;2023-04-01T22:26:18;41.02;38.96;45.40;;
64079;Laerm;51042;49.696;10.808;2023-04-01T22:31:46;41.04;38.22;51.19;;
64079;Laerm;51042;49.696;10.808;2023-04-01T22:34:20;49.48;38.82;66.28;;
64079;Laerm;51042;49.696;10.808;2023-04-01T22:42:10;55.51;39.27;76.31;;
64079;Laerm;51042;49.696;10.808;2023-04-01T22:44:59;44.88;39.10;66.70;;
64079;Laerm;51042;49.696;10.808;2023-04-01T22:47:48;42.43;38.97;58.94;;
64079;Laerm;51042;49.696;10.808;2023-04-01T22:50:26;54.12;38.97;70.59;;
64079;Laerm;51042;49.696;10.808;2023-04-01T22:53:08;49.88;39.39;67.48;;
64079;Laerm;51042;49.696;10.808;2023-04-01T22:55:44;50.24;38.08;69.75;;
64079;Laerm;51042;49.696;10.808;2023-04-01T22:58:15;57.38;38.57;75.22;;
64079;Laerm;51042;49.696;10.808;2023-04-01T23:00:47;52.69;38.07;69.58;;
64079;Laerm;51042;49.696;10.808;2023-04-01T23:03:29;41.32;38.00;56.98;;
64079;Laerm;51042;49.696;10.808;2023-04-01T23:05:58;50.35;39.11;68.01;;
64079;Laerm;51042;49.696;10.808;2023-04-01T23:08:41;55.40;38.66;71.81;;
64079;Laerm;51042;49.696;10.808;2023-04-01T23:13:41;52.01;38.03;68.27;;
64079;Laerm;51042;49.696;10.808;2023-04-01T23:16:10;50.93;38.54;68.87;;